UKBB Airport Information

Runway Information
Runway 18L Length 13123 ft width 197 ft
Elevation 410 ft Threshold 0 ft Heading 183
Runway 36R Length 13123 ft Width 197 ft
Elevation 422 ft Threshold 0 ft Heading 3
Runway 18R Length 11483 ft width 206 ft
Elevation 419 ft Threshold 0 ft Heading 183
Runway 36L Length 11483 ft Width 206 ft
Elevation 403 ft Threshold 0 ft Heading 3
Airport Frequencies
Type ATIS Name ATIS Frequency 126.7 MHZ
Type CLD Name DLV Frequency 130.275 MHZ
Type GND Name GND Frequency 118.05 MHZ
Type OPS Name OPS Frequency 131.775 MHZ
Type RDR Name KYIV RADAR Frequency 124.675 MHZ
Type TWR Name TWR Frequency 119.65 MHZ
Airport Navaids
Type NDB Name Boryspil Frequency 310 KHZ
Type VOR-DME Name Boryspil Frequency 115900 KHZ
Type NDB Name Boryspil Frequency 825 KHZ
Type NDB Name Boryspil Frequency 825 KHZ
Type NDB Name Boryspil Frequency 310 KHZ
Airport Weather Information & NOTAM
ADDS - METARS form results

(1118 UTC 17 July 2018)
 
METAR text: UKBB 171100Z 02002MPS 340V060 9999 SCT024 BKN040 24/17 Q1001 R88/290050 NOSIG
Conditions at: UKBB (BORISPOL'/KIEV , UA) observed 1100 UTC 17 July 2018
Temperature: 24.0°C (75°F)
Dewpoint: 17.0°C (63°F) [RH = 65%]
Pressure (altimeter): 29.56 inches Hg (1001.0 mb)
Winds: from the NNE (20 degrees) at 5 MPH (4 knots; 2.1 m/s)
Visibility: 6 or more miles (10+ km)
Ceiling: 4000 feet AGL
Clouds: scattered clouds at 2400 feet AGL
broken clouds at 4000 feet AGL
Weather: no significant weather observed at this time

METAR text: UKBB 171030Z 07002MPS 020V140 9999 FEW030CB BKN040 24/18 Q1002 R88/290050 NOSIG
Conditions at: UKBB (BORISPOL'/KIEV , UA) observed 1030 UTC 17 July 2018
Temperature: 24.0°C (75°F)
Dewpoint: 18.0°C (64°F) [RH = 69%]
Pressure (altimeter): 29.59 inches Hg (1002.0 mb)
Winds: from the ENE (70 degrees) at 5 MPH (4 knots; 2.1 m/s)
Visibility: 6 or more miles (10+ km)
Ceiling: 4000 feet AGL
Clouds: few clouds at 3000 feet AGL
broken clouds at 4000 feet AGL
Weather: no significant weather observed at this time